createdAt,value
2019-05-02T00:00:15.714Z,8.77
2019-05-02T00:02:47.894Z,8.60
2019-05-02T00:05:20.111Z,8.50
2019-05-02T00:07:53.888Z,8.38
2019-05-02T00:10:26.187Z,8.38
2019-05-02T00:12:58.297Z,8.29
2019-05-02T00:15:33.024Z,8.21
2019-05-02T00:18:03.538Z,8.15
2019-05-02T00:20:35.669Z,8.15
2019-05-02T00:23:09.464Z,8.10
2019-05-02T00:25:41.610Z,8.09
2019-05-02T00:28:14.024Z,8.07
2019-05-02T00:30:45.520Z,8.06
2019-05-02T00:33:17.495Z,7.98
2019-05-02T00:35:57.127Z,7.91
2019-05-02T00:38:33.388Z,7.88
2019-05-02T00:41:03.800Z,7.84
2019-05-02T00:43:38.969Z,7.82
2019-05-02T00:46:10.925Z,7.77
2019-05-02T00:48:54.045Z,7.78
2019-05-02T00:51:26.827Z,7.72
2019-05-02T00:53:59.167Z,7.63
2019-05-02T00:56:30.958Z,7.53
2019-05-02T00:59:07.524Z,7.54
2019-05-02T01:02:05.498Z,7.56
2019-05-02T01:04:35.916Z,7.52
2019-05-02T01:07:07.593Z,7.55
2019-05-02T01:09:42.102Z,7.57
2019-05-02T01:12:25.159Z,7.53
2019-05-02T01:14:45.204Z,7.56
2019-05-02T01:17:17.034Z,7.48
2019-05-02T01:19:51.392Z,7.42
2019-05-02T01:22:21.986Z,7.44
2019-05-02T01:24:53.814Z,7.40
2019-05-02T01:27:43.343Z,7.48
2019-05-02T01:30:37.268Z,7.44
2019-05-02T01:33:23.859Z,7.35
2019-05-02T01:36:06.230Z,7.25
2019-05-02T01:38:44.027Z,7.26
2019-05-02T01:41:15.807Z,7.22
2019-05-02T01:43:47.702Z,7.14
2019-05-02T01:46:22.360Z,7.14
2019-05-02T01:48:53.236Z,7.09
2019-05-02T01:51:25.074Z,7.11
2019-05-02T01:53:56.936Z,7.10
2019-05-02T01:56:33.092Z,7.05
2019-05-02T01:59:01.662Z,7.07
2019-05-02T02:01:33.446Z,7.11
2019-05-02T02:04:05.374Z,7.01
2019-05-02T02:06:38.763Z,6.98
2019-05-02T02:09:12.036Z,7.13
2019-05-02T02:11:43.874Z,7.14
2019-05-02T02:14:18.537Z,7.18
2019-05-02T02:16:49.311Z,7.15
2019-05-02T02:19:26.547Z,7.20
2019-05-02T02:22:05.907Z,7.25
2019-05-02T02:24:44.437Z,7.16
2019-05-02T02:27:19.986Z,7.10
2019-05-02T02:29:49.848Z,7.13
2019-05-02T02:32:27.102Z,7.06
2019-05-02T02:34:54.620Z,7.06
2019-05-02T02:37:26.527Z,7.09
2019-05-02T02:39:58.423Z,7.05
2019-05-02T02:42:31.808Z,7.09
2019-05-02T02:45:18.881Z,7.07
2019-05-02T02:47:52.986Z,7.03
2019-05-02T02:50:21.359Z,7.01
2019-05-02T02:52:52.505Z,6.92
2019-05-02T02:55:24.528Z,6.93
2019-05-02T02:57:58.336Z,6.90
2019-05-02T03:00:30.059Z,6.97
2019-05-02T03:03:01.914Z,6.92
2019-05-02T03:05:33.135Z,6.82
2019-05-02T03:08:06.905Z,6.90
2019-05-02T03:10:40.025Z,6.92
2019-05-02T03:13:51.520Z,7.10
2019-05-02T03:16:15.438Z,7.01
2019-05-02T03:18:46.617Z,7.07
2019-05-02T03:21:20.471Z,7.23
2019-05-02T03:24:01.345Z,7.31
2019-05-02T03:26:26.681Z,7.40
2019-05-02T03:29:00.501Z,7.77
2019-05-02T03:31:31.726Z,7.96
2019-05-02T03:34:03.839Z,8.04
2019-05-02T03:36:37.215Z,8.22
2019-05-02T03:39:14.722Z,8.45
2019-05-02T03:41:42.286Z,8.71
2019-05-02T03:44:24.612Z,8.76
2019-05-02T03:46:46.982Z,8.94
2019-05-02T03:49:18.986Z,8.77
2019-05-02T03:51:56.097Z,8.84
2019-05-02T03:54:23.923Z,8.89
2019-05-02T03:56:55.821Z,8.82
2019-05-02T03:59:37.535Z,8.90
2019-05-02T04:02:03.847Z,8.99
2019-05-02T04:04:37.566Z,9.08
2019-05-02T04:07:10.683Z,9.11
2019-05-02T04:09:42.771Z,9.14
2019-05-02T04:12:19.598Z,9.26
2019-05-02T04:14:55.336Z,9.25
2019-05-02T04:17:28.727Z,9.36
2019-05-02T04:20:09.783Z,9.44
2019-05-02T04:22:42.993Z,9.46
2019-05-02T04:25:11.899Z,9.50
2019-05-02T04:27:47.468Z,9.62
2019-05-02T04:30:22.001Z,9.83
2019-05-02T04:32:55.871Z,9.83
2019-05-02T04:35:34.825Z,9.85
2019-05-02T04:38:08.754Z,9.97
2019-05-02T04:40:41.710Z,9.98
2019-05-02T04:43:11.474Z,10.16
2019-05-02T04:45:55.265Z,10.15
2019-05-02T04:48:18.406Z,10.31
2019-05-02T04:50:51.705Z,10.29
2019-05-02T04:53:25.862Z,10.21
2019-05-02T04:56:04.328Z,9.99
2019-05-02T04:58:34.860Z,10.24
2019-05-02T05:01:05.247Z,10.19
2019-05-02T05:03:37.665Z,10.17
2019-05-02T05:06:12.284Z,10.25
2019-05-02T05:08:43.117Z,10.44
2019-05-02T05:11:20.820Z,10.51
2019-05-02T05:13:48.123Z,10.52
2019-05-02T05:16:19.192Z,10.32
2019-05-02T05:18:53.072Z,10.40
2019-05-02T05:21:25.068Z,10.55
2019-05-02T05:24:18.330Z,10.61
2019-05-02T05:26:54.536Z,10.47
2019-05-02T05:29:27.004Z,10.24
2019-05-02T05:32:05.098Z,10.20
2019-05-02T05:34:32.958Z,10.08
2019-05-02T05:37:09.392Z,10.02
2019-05-02T05:39:43.039Z,10.04
2019-05-02T05:42:12.532Z,10.14
2019-05-02T05:44:44.615Z,10.05
2019-05-02T05:47:19.726Z,10.02
2019-05-02T05:49:52.248Z,10.17
2019-05-02T05:52:24.504Z,10.28
2019-05-02T05:54:57.787Z,10.37
2019-05-02T05:57:28.660Z,10.41
2019-05-02T06:00:03.820Z,10.47
2019-05-02T06:02:50.911Z,10.53
2019-05-02T06:05:07.901Z,10.52
2019-05-02T06:07:44.681Z,10.66
2019-05-02T06:10:14.000Z,10.70
2019-05-02T06:12:45.170Z,10.66
2019-05-02T06:15:17.041Z,10.65
2019-05-02T06:17:49.007Z,10.72
2019-05-02T06:20:20.913Z,10.72
2019-05-02T06:22:55.063Z,10.75
2019-05-02T06:25:33.624Z,10.86
2019-05-02T06:28:00.228Z,11.01
2019-05-02T06:30:32.391Z,11.23
2019-05-02T06:33:03.706Z,11.47
2019-05-02T06:35:35.507Z,11.68
2019-05-02T06:38:06.653Z,11.39
2019-05-02T06:40:44.485Z,11.33
2019-05-02T06:43:13.203Z,11.46
2019-05-02T06:45:44.491Z,11.62
2019-05-02T06:48:17.706Z,11.64
2019-05-02T06:50:49.809Z,11.39
2019-05-02T06:53:21.658Z,11.26
2019-05-02T06:55:53.701Z,11.23
2019-05-02T06:58:25.535Z,11.41
2019-05-02T07:00:59.105Z,11.61
2019-05-02T07:03:31.155Z,11.80
2019-05-02T07:06:04.546Z,12.16
2019-05-02T07:08:36.174Z,12.31
2019-05-02T07:11:08.221Z,12.46
2019-05-02T07:13:42.211Z,12.53
2019-05-02T07:16:38.512Z,12.53
2019-05-02T07:19:16.264Z,12.58
2019-05-02T07:21:46.336Z,12.68
2019-05-02T07:24:18.151Z,12.39
2019-05-02T07:26:52.063Z,12.79
2019-05-02T07:29:23.551Z,12.98
2019-05-02T07:31:54.824Z,12.86
2019-05-02T07:34:26.723Z,12.87
2019-05-02T07:36:58.689Z,12.71
2019-05-02T07:39:31.856Z,13.10
2019-05-02T07:42:05.880Z,13.17
2019-05-02T07:44:37.935Z,13.08
2019-05-02T07:47:09.825Z,13.09
2019-05-02T07:49:41.771Z,13.17
2019-05-02T07:52:13.011Z,13.04
2019-05-02T07:54:44.849Z,12.57
2019-05-02T07:57:16.740Z,12.64
2019-05-02T07:59:49.854Z,12.88
2019-05-02T08:02:24.994Z,12.78
2019-05-02T08:04:55.975Z,12.83
2019-05-02T08:07:34.331Z,12.74
2019-05-02T08:10:01.372Z,12.83
2019-05-02T08:12:32.895Z,13.00
2019-05-02T08:15:07.407Z,12.85
2019-05-02T08:17:37.807Z,12.67
2019-05-02T08:20:13.748Z,12.84
2019-05-02T08:22:48.508Z,12.78
2019-05-02T08:25:16.700Z,12.67
2019-05-02T08:27:53.638Z,12.66
2019-05-02T08:30:28.916Z,12.95
2019-05-02T08:33:00.201Z,12.99
2019-05-02T08:35:32.089Z,12.54
2019-05-02T08:38:03.359Z,12.53
2019-05-02T08:40:35.307Z,12.79
2019-05-02T08:43:09.001Z,13.14
2019-05-02T08:45:40.996Z,13.37
2019-05-02T08:48:12.984Z,13.61
2019-05-02T08:50:44.899Z,13.47
2019-05-02T08:53:19.988Z,13.49
2019-05-02T08:55:49.852Z,13.64
2019-05-02T08:58:21.398Z,13.94
2019-05-02T09:00:52.740Z,13.72
2019-05-02T09:03:24.568Z,13.48
2019-05-02T09:06:05.703Z,13.64
2019-05-02T09:08:30.505Z,13.55
2019-05-02T09:11:02.539Z,13.94
2019-05-02T09:13:34.383Z,14.43
2019-05-02T09:16:06.163Z,14.81
2019-05-02T09:18:42.379Z,15.29
2019-05-02T09:21:12.815Z,15.13
2019-05-02T09:23:44.779Z,15.20
2019-05-02T09:26:16.039Z,15.44
2019-05-02T09:28:47.985Z,15.66
2019-05-02T09:31:19.879Z,15.21
2019-05-02T09:33:52.036Z,15.02
2019-05-02T09:36:24.803Z,14.81
2019-05-02T09:38:57.679Z,14.85
2019-05-02T09:41:32.520Z,15.19
2019-05-02T09:44:03.298Z,14.94
2019-05-02T09:46:35.202Z,14.82
2019-05-02T09:49:12.050Z,14.81
2019-05-02T09:51:42.055Z,14.87
2019-05-02T09:54:13.595Z,14.60
2019-05-02T09:56:45.512Z,14.03
2019-05-02T09:59:29.262Z,14.46
2019-05-02T10:01:52.766Z,14.47
2019-05-02T10:04:24.819Z,13.81
2019-05-02T10:06:56.783Z,13.64
2019-05-02T10:09:29.006Z,13.82
2019-05-02T10:12:02.038Z,13.52
2019-05-02T10:14:34.362Z,13.54
2019-05-02T10:17:07.446Z,13.39
2019-05-02T10:19:41.245Z,13.41
2019-05-02T10:22:13.393Z,13.34
2019-05-02T10:24:45.290Z,13.56
2019-05-02T10:27:17.338Z,13.87
2019-05-02T10:29:49.407Z,14.60
2019-05-02T10:32:22.641Z,14.90
2019-05-02T10:34:56.798Z,14.95
2019-05-02T10:37:30.615Z,14.50
2019-05-02T10:40:03.039Z,14.46
2019-05-02T10:42:36.232Z,14.79
2019-05-02T10:45:12.962Z,15.55
2019-05-02T10:47:44.340Z,16.12
2019-05-02T10:50:24.054Z,15.57
2019-05-02T10:53:05.365Z,15.28
2019-05-02T10:55:33.248Z,15.35
2019-05-02T10:58:05.488Z,15.15
2019-05-02T11:00:38.997Z,15.07
2019-05-02T11:03:19.182Z,14.94
2019-05-02T11:05:57.922Z,15.15
2019-05-02T11:08:31.701Z,15.01
2019-05-02T11:11:06.119Z,14.78
2019-05-02T11:14:04.861Z,14.86
2019-05-02T11:16:52.864Z,14.92
2019-05-02T11:19:36.373Z,15.49
2019-05-02T11:22:07.653Z,15.39
2019-05-02T11:24:38.809Z,15.03
2019-05-02T11:27:12.680Z,15.00
2019-05-02T11:29:44.325Z,15.26
2019-05-02T11:32:16.459Z,15.14
2019-05-02T11:34:48.448Z,15.37
2019-05-02T11:37:22.506Z,15.79
2019-05-02T11:40:00.438Z,16.31
2019-05-02T11:42:27.650Z,16.24
2019-05-02T11:44:59.585Z,16.28
2019-05-02T11:47:32.721Z,16.31
2019-05-02T11:50:05.061Z,16.49
2019-05-02T11:52:37.552Z,16.18
2019-05-02T11:55:09.613Z,15.99
2019-05-02T11:57:42.547Z,15.21
2019-05-02T12:00:14.969Z,15.22
2019-05-02T12:03:05.221Z,15.82
2019-05-02T12:05:41.963Z,15.53
2019-05-02T12:08:14.887Z,15.15
2019-05-02T12:10:46.737Z,15.19
2019-05-02T12:13:18.614Z,15.11
2019-05-02T12:15:51.922Z,14.73
2019-05-02T12:18:24.072Z,14.61
2019-05-02T12:20:56.126Z,14.78
2019-05-02T12:23:27.986Z,14.65
2019-05-02T12:25:59.929Z,14.53
2019-05-02T12:28:32.495Z,14.75
2019-05-02T12:31:07.967Z,14.89
2019-05-02T12:33:42.653Z,14.85
2019-05-02T12:36:14.700Z,14.63
2019-05-02T12:38:46.600Z,14.54
2019-05-02T12:41:21.983Z,14.61
2019-05-02T12:43:52.460Z,14.81
2019-05-02T12:46:24.512Z,14.99
2019-05-02T12:48:56.472Z,15.09
2019-05-02T12:51:28.454Z,15.07
2019-05-02T12:54:02.346Z,15.20
2019-05-02T12:56:34.017Z,15.12
2019-05-02T12:59:05.298Z,14.94
2019-05-02T13:01:37.127Z,14.58
2019-05-02T13:04:13.426Z,14.33
2019-05-02T13:06:45.450Z,14.33
2019-05-02T13:09:16.705Z,14.43
2019-05-02T13:12:07.373Z,14.55
2019-05-02T13:14:39.505Z,14.74
2019-05-02T13:17:12.080Z,14.61
2019-05-02T13:19:55.480Z,14.86
2019-05-02T13:22:34.767Z,14.92
2019-05-02T13:25:14.883Z,14.87
2019-05-02T13:27:49.630Z,14.83
2019-05-02T13:30:46.570Z,14.63
2019-05-02T13:33:27.240Z,14.68
2019-05-02T13:35:59.746Z,14.80
2019-05-02T13:38:32.930Z,14.83
2019-05-02T13:41:04.351Z,14.76
2019-05-02T13:43:43.195Z,14.72
2019-05-02T13:46:22.238Z,14.94
2019-05-02T13:48:53.612Z,15.52
2019-05-02T13:51:25.465Z,15.37
2019-05-02T13:53:58.991Z,15.41
2019-05-02T13:56:49.108Z,15.73
2019-05-02T13:59:24.182Z,15.75
2019-05-02T14:01:55.453Z,15.63
2019-05-02T14:04:29.524Z,15.76
2019-05-02T14:07:07.578Z,15.53
2019-05-02T14:10:02.493Z,15.60
2019-05-02T14:12:53.068Z,15.45
2019-05-02T14:15:32.467Z,15.62
2019-05-02T14:18:03.749Z,15.39
2019-05-02T14:20:37.361Z,15.36
2019-05-02T14:23:08.928Z,15.37
2019-05-02T14:25:42.619Z,15.30
2019-05-02T14:28:14.596Z,15.31
2019-05-02T14:30:46.558Z,15.33
2019-05-02T14:33:23.796Z,15.27
2019-05-02T14:35:55.888Z,15.52
2019-05-02T14:38:27.060Z,15.48
2019-05-02T14:41:12.444Z,15.60
2019-05-02T14:43:56.753Z,15.97
2019-05-02T14:46:34.230Z,15.84
2019-05-02T14:49:02.829Z,15.57
2019-05-02T14:51:36.741Z,15.42
2019-05-02T14:54:11.930Z,15.47
2019-05-02T14:57:01.998Z,15.47
2019-05-02T14:59:34.728Z,15.31
2019-05-02T15:02:09.808Z,15.34
2019-05-02T15:04:44.403Z,15.50
2019-05-02T15:07:17.586Z,15.48
2019-05-02T15:09:49.523Z,15.45
2019-05-02T15:12:22.184Z,15.41
2019-05-02T15:14:58.650Z,15.48
2019-05-02T15:17:36.273Z,15.45
2019-05-02T15:20:02.812Z,15.56
2019-05-02T15:22:37.435Z,15.72
2019-05-02T15:25:13.664Z,15.63
2019-05-02T15:27:44.560Z,15.79
2019-05-02T15:30:15.977Z,15.93
2019-05-02T15:32:53.700Z,15.71
2019-05-02T15:35:43.948Z,15.62
2019-05-02T15:38:24.699Z,15.50
2019-05-02T15:40:53.484Z,15.39
2019-05-02T15:43:24.392Z,15.49
2019-05-02T15:45:55.588Z,15.50
2019-05-02T15:48:27.901Z,15.44
2019-05-02T15:51:06.135Z,15.48
2019-05-02T15:54:01.915Z,15.49
2019-05-02T15:56:24.395Z,15.44
2019-05-02T15:58:57.968Z,15.46
2019-05-02T16:01:48.577Z,15.39
2019-05-02T16:04:25.703Z,15.47
2019-05-02T16:06:55.558Z,15.44
2019-05-02T16:09:27.867Z,15.63
2019-05-02T16:11:59.457Z,15.62
2019-05-02T16:14:32.444Z,15.67
2019-05-02T16:17:03.994Z,15.87
2019-05-02T16:19:44.823Z,15.82
2019-05-02T16:22:17.474Z,15.84
2019-05-02T16:24:51.056Z,15.85
2019-05-02T16:27:42.095Z,15.74
2019-05-02T16:30:16.690Z,15.82
2019-05-02T16:32:52.680Z,15.71
2019-05-02T16:35:25.092Z,15.67
2019-05-02T16:37:58.109Z,15.60
2019-05-02T16:40:32.777Z,15.72
2019-05-02T16:43:03.698Z,15.71
2019-05-02T16:45:35.556Z,15.78
2019-05-02T16:48:06.988Z,15.90
2019-05-02T16:50:39.657Z,16.12
2019-05-02T16:53:17.227Z,16.09
2019-05-02T16:55:46.171Z,16.06
2019-05-02T16:58:19.323Z,16.21
2019-05-02T17:00:52.646Z,16.17
2019-05-02T17:03:26.726Z,16.16
2019-05-02T17:05:58.983Z,16.05
2019-05-02T17:08:49.407Z,16.11
2019-05-02T17:11:27.778Z,16.01
2019-05-02T17:13:59.183Z,15.55
2019-05-02T17:16:31.551Z,15.77
2019-05-02T17:19:05.285Z,15.78
2019-05-02T17:21:52.428Z,15.93
2019-05-02T17:24:10.029Z,15.87
2019-05-02T17:26:42.293Z,15.91
2019-05-02T17:29:27.745Z,15.87
2019-05-02T17:32:02.387Z,15.94
2019-05-02T17:34:35.016Z,15.66
2019-05-02T17:37:11.348Z,15.63
2019-05-02T17:39:45.958Z,15.43
2019-05-02T17:42:17.028Z,15.28
2019-05-02T17:44:51.819Z,15.13
2019-05-02T17:47:22.232Z,14.93
2019-05-02T17:49:55.291Z,14.77
2019-05-02T17:52:35.234Z,14.61
2019-05-02T17:55:08.555Z,14.45
2019-05-02T17:57:41.964Z,14.34
2019-05-02T18:00:21.210Z,14.30
2019-05-02T18:02:53.647Z,14.19
2019-05-02T18:05:26.603Z,14.05
2019-05-02T18:07:58.950Z,13.91
2019-05-02T18:10:32.178Z,13.81
2019-05-02T18:13:03.106Z,13.71
2019-05-02T18:15:36.243Z,13.62
2019-05-02T18:18:08.118Z,13.46
2019-05-02T18:20:42.850Z,13.34
2019-05-02T18:23:13.670Z,13.26
2019-05-02T18:25:45.827Z,13.15
2019-05-02T18:28:22.225Z,13.08
2019-05-02T18:30:52.498Z,13.01
2019-05-02T18:33:27.442Z,13.00
2019-05-02T18:36:01.811Z,13.02
2019-05-02T18:38:33.164Z,13.01
2019-05-02T18:41:07.842Z,13.01
2019-05-02T18:43:43.601Z,13.02
2019-05-02T18:46:13.002Z,13.02
2019-05-02T18:48:47.636Z,13.03
2019-05-02T18:51:19.321Z,13.02
2019-05-02T18:53:52.934Z,13.00
2019-05-02T18:56:24.726Z,12.97
2019-05-02T18:58:56.818Z,12.98
2019-05-02T19:01:28.833Z,12.97
2019-05-02T19:04:01.998Z,12.97
2019-05-02T19:06:36.199Z,12.95
2019-05-02T19:09:10.243Z,12.95
2019-05-02T19:11:42.493Z,12.91
2019-05-02T19:14:16.663Z,12.87
2019-05-02T19:16:49.158Z,12.85
2019-05-02T19:19:20.331Z,12.87
2019-05-02T19:21:51.762Z,12.82
2019-05-02T19:24:27.345Z,12.78
2019-05-02T19:26:59.259Z,12.77
2019-05-02T19:29:32.085Z,12.71
2019-05-02T19:32:06.899Z,12.63
2019-05-02T19:34:39.330Z,12.50
2019-05-02T19:37:12.240Z,12.33
2019-05-02T19:39:48.769Z,12.19
2019-05-02T19:42:22.554Z,12.21
2019-05-02T19:44:54.072Z,12.16
2019-05-02T19:47:25.850Z,12.15
2019-05-02T19:49:57.248Z,12.15
2019-05-02T19:52:37.168Z,12.25
2019-05-02T19:55:03.552Z,12.31
2019-05-02T19:57:35.985Z,12.35
2019-05-02T20:00:07.947Z,12.37
2019-05-02T20:02:42.392Z,12.35
2019-05-02T20:05:16.457Z,12.25
2019-05-02T20:07:48.883Z,12.16
2019-05-02T20:10:22.705Z,12.16
2019-05-02T20:12:54.353Z,12.23
2019-05-02T20:15:30.219Z,12.39
2019-05-02T20:18:04.792Z,12.36
2019-05-02T20:21:05.497Z,12.44
2019-05-02T20:23:37.295Z,12.46
2019-05-02T20:26:09.506Z,12.55
2019-05-02T20:28:44.019Z,12.77
2019-05-02T20:31:15.659Z,12.81
2019-05-02T20:33:47.498Z,13.18
2019-05-02T20:36:19.177Z,13.29
2019-05-02T20:38:52.430Z,13.17
2019-05-02T20:41:24.240Z,13.23
2019-05-02T20:43:56.282Z,13.36
2019-05-02T20:46:28.369Z,13.39
2019-05-02T20:49:01.872Z,13.41
2019-05-02T20:51:32.880Z,13.34
2019-05-02T20:54:15.486Z,13.35
2019-05-02T20:56:51.991Z,13.24
2019-05-02T20:59:26.679Z,13.33
2019-05-02T21:01:58.182Z,13.39
2019-05-02T21:04:32.878Z,13.35
2019-05-02T21:07:14.814Z,13.40
2019-05-02T21:10:17.023Z,13.30
2019-05-02T21:12:52.611Z,13.38
2019-05-02T21:15:24.218Z,13.29
2019-05-02T21:17:55.424Z,13.18
2019-05-02T21:20:27.330Z,13.11
2019-05-02T21:23:02.057Z,13.25
2019-05-02T21:25:34.463Z,13.38
2019-05-02T21:28:05.986Z,13.57
2019-05-02T21:30:37.470Z,13.37
2019-05-02T21:33:42.515Z,13.42
2019-05-02T21:36:13.297Z,13.31
2019-05-02T21:38:45.142Z,13.21
2019-05-02T21:41:17.311Z,13.27
2019-05-02T21:43:49.493Z,13.38
2019-05-02T21:46:22.391Z,13.32
2019-05-02T21:48:53.680Z,13.27
2019-05-02T21:51:43.784Z,13.14
2019-05-02T21:54:43.199Z,13.19
2019-05-02T21:57:19.476Z,13.17
2019-05-02T21:59:52.699Z,13.02
2019-05-02T22:02:24.467Z,12.99
2019-05-02T22:04:56.632Z,12.97
2019-05-02T22:07:27.987Z,12.97
2019-05-02T22:10:03.063Z,12.95
2019-05-02T22:12:34.564Z,12.97
2019-05-02T22:15:05.974Z,12.95
2019-05-02T22:17:37.796Z,12.93
2019-05-02T22:20:10.025Z,12.87
2019-05-02T22:22:42.574Z,12.86
2019-05-02T22:25:14.700Z,12.79
2019-05-02T22:27:46.640Z,12.74
2019-05-02T22:30:18.577Z,12.71
2019-05-02T22:32:51.695Z,12.73
2019-05-02T22:35:24.072Z,12.62
2019-05-02T22:37:58.904Z,12.62
2019-05-02T22:40:32.937Z,12.65
2019-05-02T22:43:04.830Z,12.56
2019-05-02T22:45:41.732Z,12.31
2019-05-02T22:48:14.297Z,12.15
2019-05-02T22:50:45.684Z,12.05
2019-05-02T22:53:17.600Z,11.87
2019-05-02T22:55:51.470Z,11.75
2019-05-02T22:58:23.545Z,11.75
2019-05-02T23:00:54.814Z,11.78
2019-05-02T23:03:26.054Z,11.76
2019-05-02T23:05:58.696Z,11.77
2019-05-02T23:08:30.685Z,11.71
2019-05-02T23:11:03.510Z,11.76
2019-05-02T23:13:35.872Z,11.78
2019-05-02T23:16:07.701Z,11.76
2019-05-02T23:18:39.710Z,11.73
2019-05-02T23:21:12.725Z,11.66
2019-05-02T23:23:44.640Z,11.63
2019-05-02T23:26:43.600Z,11.57
2019-05-02T23:29:16.397Z,11.54
2019-05-02T23:31:48.499Z,11.45
2019-05-02T23:34:23.537Z,11.52
2019-05-02T23:36:55.071Z,11.51
2019-05-02T23:39:26.308Z,11.46
2019-05-02T23:42:02.001Z,11.61
2019-05-02T23:44:34.007Z,11.65
2019-05-02T23:47:06.072Z,11.60
2019-05-02T23:49:37.400Z,11.58
2019-05-02T23:52:09.176Z,11.53
2019-05-02T23:54:50.057Z,11.53
2019-05-02T23:57:14.779Z,11.44
2019-05-02T23:59:46.620Z,11.52
